EW6271 Weather Reports


Display with metric or nautical units.
time (UTC)temp
F
wind
direction
speed
MPH
gust
MPH
rain 1hr
in
rain 24hr
in
rain mn
in
humidity
%
barometer
mb
20180919070051 34 341 0.0 0.0 0.00 0.00 0.00 76 1015.6
20180919064616 34 341 0.0 0.0 0.00 0.00 0.00 76 1015.5
20180919063048 35 341 0.0 1.0 0.00 0.00 0.00 75 1015.4
20180919061600 35 341 0.0 1.0 0.00 0.00 0.00 74 1015.6
20180919060058 36 346 0.0 1.0 0.00 0.00 0.00 73 1015.5
20180919054602 36 347 0.0 1.0 0.00 0.00 0.00 74 1015.6
20180919053137 36 329 0.0 2.0 0.00 0.00 0.00 73 1015.7
20180919051559 36 342 0.0 0.0 0.00 0.00 0.00 73 1015.7
20180919050051 37 346 0.0 0.0 0.00 0.00 0.00 72 1015.8
20180919044600 37 341 0.0 0.0 0.00 0.00 0.00 72 1015.9
20180919043033 38 340 0.0 0.0 0.00 0.00 0.00 70 1015.8
20180919041540 39 340 0.0 0.0 0.00 0.00 0.00 69 1015.8
20180919040041 40 340 0.0 0.0 0.00 0.00 0.00 68 1015.7
20180919034547 40 346 0.0 0.0 0.00 0.00 0.00 67 1015.8
20180919033033 41 346 0.0 0.0 0.00 0.00 0.00 64 1015.7
20180919031553 43 345 0.0 0.0 0.00 0.00 0.00 62 1015.7
20180919030123 44 2 0.0 0.0 0.00 0.00 0.00 59 1015.6
20180919024548 46 2 0.0 1.0 0.00 0.00 0.00 57 1015.4
20180919023036 48 2 0.0 1.0 0.00 0.00 0.00 52 1015.2
20180919021533 50 23 0.0 1.0 0.00 0.00 0.00 50 1015.1
20180919020034 52 71 0.0 0.0 0.00 0.00 0.00 47 1014.9
20180919014534 55 70 0.0 0.0 0.00 0.00 0.00 47 1014.8
20180919013046 58 70 0.0 0.0 0.00 0.00 0.00 40 1014.8
20180919011546 60 71 0.0 0.0 0.00 0.00 0.00 39 1014.7
20180919010023 62 70 0.0 2.0 0.00 0.00 0.00 37 1014.6
20180919004524 63 82 0.0 3.0 0.00 0.00 0.00 35 1014.6
20180919003029 64 87 0.0 3.0 0.00 0.00 0.00 34 1014.6
20180919001519 65 13 1.0 5.0 0.00 0.00 0.00 31 1014.6
20180919000021 66 198 2.0 5.0 0.00 0.00 0.00 31 1014.5
20180918234532 66 105 2.0 5.0 0.00 0.00 0.00 31 1014.7
20180918233021 66 76 1.0 5.0 0.00 0.00 0.00 30 1014.7
20180918231511 67 183 1.0 5.0 0.00 0.00 0.00 31 1014.8
20180918230027 67 115 1.0 5.0 0.00 0.00 0.00 31 1014.8
20180918224512 67 194 1.0 5.0 0.00 0.00 0.00 30 1014.9
20180918223027 66 138 2.0 8.0 0.00 0.00 0.00 31 1015.1
20180918221505 66 181 2.0 7.0 0.00 0.00 0.00 31 1015.1
20180918214729 66 190 3.0 9.0 0.00 0.00 0.00 31 1015.3
20180918213122 67 153 3.0 7.0 0.00 0.00 0.00 29 1015.5
20180918211727 66 100 1.0 7.0 0.00 0.00 0.00 31 1015.5
20180918203101 65 141 1.0 8.0 0.00 0.00 0.00 34 1015.9
20180918201605 65 37 1.0 6.0 0.00 0.00 0.00 35 1016.0
20180918200131 64 224 1.0 6.0 0.00 0.00 0.00 35 1016.2
20180918194646 64 150 3.0 6.0 0.00 0.00 0.00 36 1016.2
20180918193105 64 137 2.0 6.0 0.00 0.00 0.00 36 1016.4
20180918191550 64 262 0.0 4.0 0.00 0.00 0.00 37 1016.4
20180918190052 64 175 1.0 6.0 0.00 0.00 0.00 39 1016.5
20180918184616 63 355 1.0 6.0 0.00 0.00 0.00 39 1016.6
20180918183111 62 352 0.0 6.0 0.00 0.00 0.00 44 1016.6
20180918181611 61 335 2.0 7.0 0.00 0.00 0.00 44 1016.7
20180918180059 60 44 1.0 6.0 0.00 0.00 0.00 47 1016.8
20180918174531 59 181 1.0 4.0 0.00 0.00 0.00 48 1016.9
20180918173025 58 21 1.0 4.0 0.00 0.00 0.00 52 1017.1
20180918171527 55 155 1.0 3.0 0.00 0.00 0.00 54 1017.1
20180918170040 54 69 1.0 7.0 0.00 0.00 0.00 55 1017.0
20180918164533 53 60 2.0 6.0 0.00 0.00 0.00 56 1017.0
20180918163024 52 321 2.0 8.0 0.00 0.00 0.00 59 1017.0
20180918161516 51 12 1.0 3.0 0.00 0.00 0.00 62 1016.8
20180918160109 49 155 0.0 2.0 0.00 0.00 0.00 66 1016.9
20180918154639 47 342 0.0 1.0 0.00 0.00 0.00 74 1016.8
20180918153054 45 342 0.0 0.0 0.00 0.00 0.00 83 1016.8
20180918151617 42 342 0.0 0.0 0.00 0.00 0.00 86 1016.8
20180918150126 40 342 0.0 0.0 0.00 0.00 0.00 86 1016.8
20180918144551 38 342 0.0 0.0 0.00 0.00 0.00 88 1016.7
20180918143106 37 342 0.0 1.0 0.00 0.00 0.00 90 1016.6
20180918141615 36 342 0.0 0.0 0.00 0.00 0.00 90 1016.5
20180918140107 35 342 0.0 0.0 0.00 0.00 0.00 91 1016.3
20180918134543 35 342 0.0 0.0 0.00 0.00 0.00 90 1016.2
20180918133200 35 342 0.0 0.0 0.00 0.00 0.00 89 1016.1
20180918094513 38 342 0.0 1.0 0.00 0.00 0.00 86 1015.4
20180918093012 38 342 0.0 1.0 0.00 0.00 0.00 85 1015.5
20180918090026 39 342 0.0 0.0 0.00 0.00 0.00 83 1015.5
20180918084509 40 342 0.0 1.0 0.00 0.00 0.00 83 1015.5
20180918083006 40 342 0.0 0.0 0.00 0.00 0.00 82 1015.4
20180918081628 41 342 0.0 0.0 0.00 0.00 0.00 82 1015.4
20180918080136 41 342 0.0 1.0 0.00 0.00 0.00 81 1015.4
20180918074617 41 317 0.0 0.0 0.00 0.00 0.00 81 1015.5
20180918073110 42 317 0.0 0.0 0.00 0.00 0.00 80 1015.4
20180918071558 41 317 0.0 0.0 0.00 0.00 0.00 80 1015.4